This is the latest recevied weather packets stored in our database for station/object KE0PRS. If no packets are shown the sender has not sent any weather packets the latest 10 day(s).
| Time | Temp. | Humidity | Pressure | Rain* | Wind** | Luminosity | Snow |
|---|---|---|---|---|---|---|---|
| 1787952133 | 34.44° C | 38% | 1017.4 hPa | 0 mm | - | 553 W/m² | - |
| 1787951832 | 34.44° C | 37% | 1017.5 hPa | 0 mm | - | 520 W/m² | - |
| 1787951528 | 34.44° C | 36% | 1017.4 hPa | 0 mm | - | 514 W/m² | - |
| 1787951224 | 34.44° C | 37% | 1017.6 hPa | 0 mm | - | 581 W/m² | - |
| 1787950919 | 33.89° C | 38% | 1017.7 hPa | 0 mm | - | 602 W/m² | - |
| 1787950614 | 34.44° C | 36% | 1017.8 hPa | 0 mm | - | 611 W/m² | - |
| 1787950310 | 33.89° C | 37% | 1017.9 hPa | 0 mm | - | 639 W/m² | - |
| 1787950006 | 33.89° C | 37% | 1018.2 hPa | 0 mm | - | 574 W/m² | - |
| 1787949702 | 34.44° C | 38% | 1018.1 hPa | 0 mm | - | 655 W/m² | - |
| 1787949401 | 33.89° C | 37% | 1018.2 hPa | 0 mm | - | 655 W/m² | - |
| 1787949096 | 33.89° C | 36% | 1018.2 hPa | 0 mm | - | 671 W/m² | - |
| 1787948792 | 33.89° C | 38% | 1018.3 hPa | 0 mm | - | 673 W/m² | - |
| 1787948491 | 33.89° C | 36% | 1018.3 hPa | 0 mm | - | 678 W/m² | - |
| 1787948187 | 33.89° C | 37% | 1018.4 hPa | 0 mm | - | 689 W/m² | - |
| 1787947885 | 33.33° C | 39% | 1018.5 hPa | 0 mm | - | 645 W/m² | - |
| 1787947581 | 33.33° C | 39% | 1018.4 hPa | 0 mm | - | 725 W/m² | - |
| 1787947281 | 33.89° C | 39% | 1018.6 hPa | 0 mm | - | 754 W/m² | - |
| 1787946980 | 33.89° C | 39% | 1018.9 hPa | 0 mm | - | 550 W/m² | - |
| 1787946678 | 33.89° C | 41% | 1018.9 hPa | 0 mm | - | 716 W/m² | - |
| 1787946373 | 33.33° C | 42% | 1018.9 hPa | 0 mm | - | 707 W/m² | - |
| 1787946073 | 33.33° C | 40% | 1019.1 hPa | 0 mm | - | 717 W/m² | - |
| 1787945768 | 33.33° C | 41% | 1019 hPa | 0 mm | - | 870 W/m² | - |
| 1787945463 | 32.78° C | 42% | 1019.1 hPa | 0 mm | - | 693 W/m² | - |
| 1787945159 | 32.78° C | 42% | 1019.1 hPa | 0 mm | - | 748 W/m² | - |
| 1787944856 | 32.78° C | 41% | 1019 hPa | 0 mm | - | 765 W/m² | - |
* Rain latest hour (hover to see other rain measurements)
** Current wind speed in m/s (hover to see current wind gust speed)